Time;durP1;ratioP1;P1;durP2;ratioP2;P2;SDS_P1;SDS_P2;PMS_P1;PMS_P2;Temp;Humidity;BMP_temperature;BMP_pressure;BME280_temperature;BME280_humidity;BME280_pressure;Samples;Min_cycle;Max_cycle;Signal;HPM_P1;HPM_P2
2022/03/11 00:07:35;;;;;;;23.27;13.63;;;6.60;51.60;;;;;;20911033;28;20235;-67
2022/03/11 00:17:37;;;;;;;24.87;14.27;;;6.70;51.40;;;;;;20910666;28;20648;-64
2022/03/11 00:27:39;;;;;;;25.10;15.47;;;6.70;51.40;;;;;;20917715;28;20231;-62
2022/03/11 00:37:41;;;;;;;27.47;15.43;;;6.70;52.10;;;;;;20927862;28;20257;-64
2022/03/11 00:47:43;;;;;;;29.20;16.13;;;6.60;51.70;;;;;;20928505;28;20297;-62
2022/03/11 00:57:44;;;;;;;25.37;16.07;;;6.60;52.30;;;;;;20924932;28;20212;-62
2022/03/11 01:07:46;;;;;;;27.20;16.73;;;6.50;52.60;;;;;;20923327;28;20301;-62
2022/03/11 01:17:48;;;;;;;33.30;16.60;;;6.20;52.50;;;;;;20922553;28;20266;-70
2022/03/11 01:27:49;;;;;;;30.30;17.53;;;6.20;53.20;;;;;;20921928;28;20232;-65
2022/03/11 01:37:51;;;;;;;34.10;18.40;;;6.10;53.50;;;;;;20920809;28;20262;-68
2022/03/11 01:47:53;;;;;;;29.00;17.27;;;6.00;53.30;;;;;;20920102;28;20242;-69
2022/03/11 01:57:54;;;;;;;30.93;18.20;;;6.00;53.80;;;;;;20919964;28;20264;-69
2022/03/11 02:07:59;;;;;;;34.00;18.20;;;5.80;53.50;;;;;;20918085;28;20236;-68
2022/03/11 02:18:01;;;;;;;29.87;18.33;;;5.80;54.10;;;;;;20916863;28;20208;-68
2022/03/11 02:28:03;;;;;;;30.40;18.13;;;5.80;53.90;;;;;;20917450;28;20235;-69
2022/03/11 02:38:05;;;;;;;30.77;17.70;;;5.80;54.30;;;;;;20916364;28;20211;-68
2022/03/11 02:48:06;;;;;;;30.40;17.60;;;5.70;54.40;;;;;;20915152;28;20576;-65
2022/03/11 02:58:08;;;;;;;31.27;18.50;;;5.60;54.60;;;;;;20927100;28;20212;-65
2022/03/11 03:08:10;;;;;;;32.13;17.70;;;5.60;54.80;;;;;;20916105;28;20236;-65
2022/03/11 03:18:12;;;;;;;34.00;18.40;;;5.50;54.90;;;;;;20914545;28;20208;-66
2022/03/11 03:28:13;;;;;;;32.73;18.93;;;5.50;55.00;;;;;;20913109;28;20293;-64
2022/03/11 03:38:15;;;;;;;33.17;19.17;;;5.40;55.00;;;;;;20912534;28;20204;-64
2022/03/11 03:48:17;;;;;;;33.53;18.90;;;5.40;55.00;;;;;;20912866;28;20252;-69
2022/03/11 03:58:18;;;;;;;31.30;17.97;;;5.20;55.00;;;;;;20913216;28;20207;-69
2022/03/11 04:08:21;;;;;;;31.03;17.67;;;5.10;55.20;;;;;;20928232;28;20595;-69
2022/03/11 04:18:22;;;;;;;33.97;17.80;;;5.00;54.40;;;;;;20927344;28;20671;-66
2022/03/11 04:28:24;;;;;;;27.03;16.93;;;5.00;54.90;;;;;;20926481;28;20301;-63
2022/03/11 04:38:26;;;;;;;28.33;16.43;;;4.90;54.60;;;;;;20926395;28;20612;-65
2022/03/11 04:48:28;;;;;;;27.40;16.90;;;4.80;53.80;;;;;;20924906;28;20768;-66
2022/03/11 04:58:30;;;;;;;30.50;17.17;;;4.80;54.10;;;;;;20924026;28;20208;-64
2022/03/11 05:08:33;;;;;;;25.90;15.90;;;4.70;53.30;;;;;;20923751;28;20293;-62
2022/03/11 05:18:35;;;;;;;28.17;15.03;;;4.60;53.00;;;;;;20925042;28;20257;-63
2022/03/11 05:28:36;;;;;;;28.67;14.93;;;4.60;53.30;;;;;;20922710;28;20236;-61
2022/03/11 05:38:38;;;;;;;27.63;14.37;;;4.60;52.90;;;;;;20921057;28;20212;-67
2022/03/11 05:48:40;;;;;;;27.50;16.43;;;4.40;51.90;;;;;;20919594;28;20270;-69
2022/03/11 05:58:41;;;;;;;25.87;15.13;;;4.40;52.20;;;;;;20918037;28;20545;-67
2022/03/11 06:08:43;;;;;;;27.87;13.50;;;4.30;51.70;;;;;;20918475;28;20285;-67
2022/03/11 06:18:50;;;;;;;23.07;12.40;;;4.30;50.90;;;;;;20917548;28;20303;-65
2022/03/11 06:28:51;;;;;;;22.23;11.57;;;4.40;50.00;;;;;;20915542;28;20232;-65
2022/03/11 06:38:54;;;;;;;19.30;11.10;;;4.50;50.40;;;;;;20916242;28;20663;-68
2022/03/11 06:48:56;;;;;;;17.33;10.47;;;4.80;48.50;;;;;;20913991;28;20251;-66
2022/03/11 06:58:58;;;;;;;17.97;10.17;;;4.80;48.20;;;;;;20913511;28;20219;-67
2022/03/11 07:09:00;;;;;;;22.77;10.50;;;5.00;48.30;;;;;;20912780;28;20235;-63
2022/03/11 07:19:02;;;;;;;18.07;9.93;;;5.20;46.70;;;;;;20911551;28;20610;-65
2022/03/11 07:29:04;;;;;;;17.90;9.47;;;5.40;46.80;;;;;;20912025;28;20750;-64
2022/03/11 07:39:07;;;;;;;15.27;8.77;;;5.60;46.00;;;;;;20912688;28;20209;-63
2022/03/11 07:49:09;;;;;;;14.90;9.17;;;5.80;44.40;;;;;;20910268;28;20811;-65
2022/03/11 07:59:12;;;;;;;15.20;8.83;;;5.90;44.60;;;;;;20910835;28;20219;-64
2022/03/11 08:09:13;;;;;;;15.23;8.10;;;6.10;42.00;;;;;;20910132;28;20228;-69
2022/03/11 08:19:15;;;;;;;12.00;7.80;;;6.30;41.60;;;;;;20909089;28;20269;-71
2022/03/11 08:29:24;;;;;;;15.30;8.17;;;6.50;41.10;;;;;;20908493;28;20232;-65
2022/03/11 08:39:26;;;;;;;14.53;8.17;;;6.50;41.40;;;;;;20902226;28;20204;-68
2022/03/11 08:49:27;;;;;;;13.67;8.60;;;6.60;41.20;;;;;;20870101;28;20616;-66
2022/03/11 08:59:29;;;;;;;14.27;9.27;;;6.80;41.00;;;;;;20903633;28;20201;-67
2022/03/11 09:09:32;;;;;;;17.53;8.60;;;7.00;40.80;;;;;;20864492;28;20249;-63
2022/03/11 09:19:34;;;;;;;16.50;8.83;;;7.20;39.80;;;;;;20840228;28;20213;-64
2022/03/11 09:29:36;;;;;;;15.53;8.27;;;7.60;39.80;;;;;;20838459;28;20243;-68
2022/03/11 09:39:37;;;;;;;14.33;8.67;;;7.60;40.30;;;;;;20907432;28;20546;-63
2022/03/11 09:49:39;;;;;;;12.17;8.27;;;7.80;40.10;;;;;;20909765;28;20295;-73
2022/03/11 09:59:41;;;;;;;14.87;8.47;;;8.00;39.80;;;;;;20848319;28;20210;-63
2022/03/11 10:10:11;;;;;;;14.97;8.23;;;8.30;38.80;;;;;;20998018;28;20244;-64
2022/03/11 10:20:34;;;;;;;12.07;8.10;;;8.50;39.40;;;;;;21000733;28;20253;-64
2022/03/11 10:30:40;;;;;;;15.93;8.73;;;8.70;38.90;;;;;;20998716;28;20227;-64
2022/03/11 10:40:56;;;;;;;14.00;8.73;;;8.80;38.50;;;;;;20997995;28;20231;-62
2022/03/11 10:50:57;;;;;;;16.37;8.30;;;9.10;38.40;;;;;;20997575;28;20295;-63
2022/03/11 11:00:59;;;;;;;13.57;7.97;;;9.20;37.70;;;;;;20996345;28;20206;-65
2022/03/11 11:11:01;;;;;;;14.40;8.03;;;9.40;37.40;;;;;;20995758;28;20235;-61
2022/03/11 11:21:07;;;;;;;14.47;7.73;;;9.80;36.30;;;;;;20995577;28;20281;-66
2022/03/11 11:31:09;;;;;;;11.10;7.47;;;9.90;36.90;;;;;;20995024;28;20232;-64
2022/03/11 11:41:19;;;;;;;10.87;6.60;;;10.20;34.30;;;;;;20994216;28;20317;-64
2022/03/11 11:51:44;;;;;;;11.43;6.90;;;10.60;33.90;;;;;;20992989;28;20294;-67
2022/03/11 12:01:52;;;;;;;10.50;7.23;;;11.00;33.10;;;;;;20951172;28;20750;-62
2022/03/11 12:11:54;;;;;;;14.07;7.43;;;11.10;33.60;;;;;;20825538;28;20286;-62
2022/03/11 12:21:56;;;;;;;12.40;7.43;;;11.50;31.90;;;;;;20832196;28;20730;-63
2022/03/11 12:31:57;;;;;;;10.20;6.37;;;12.10;35.70;;;;;;20842458;28;20290;-64
2022/03/11 12:41:59;;;;;;;13.03;6.43;;;12.60;37.20;;;;;;20937939;28;20285;-62
2022/03/11 12:52:18;;;;;;;11.27;6.00;;;12.70;30.30;;;;;;20992227;28;20240;-65
2022/03/11 13:02:20;;;;;;;13.00;6.00;;;12.70;30.00;;;;;;20922038;28;20208;-64
2022/03/11 13:12:27;;;;;;;12.03;5.80;;;12.80;28.20;;;;;;20962482;28;20298;-68
2022/03/11 13:22:29;;;;;;;10.33;5.30;;;13.00;27.70;;;;;;20923898;28;20212;-63
2022/03/11 13:32:30;;;;;;;40.23;6.37;;;13.30;30.00;;;;;;20917793;28;20227;-63
2022/03/11 13:42:32;;;;;;;16.40;4.93;;;13.30;30.50;;;;;;20927995;28;20264;-62
2022/03/11 13:52:41;;;;;;;59.83;8.17;;;13.80;29.50;;;;;;21002954;28;20273;-63
2022/03/11 14:02:43;;;;;;;11.97;5.43;;;14.10;31.40;;;;;;20947641;28;20652;-63
2022/03/11 14:12:47;;;;;;;13.83;5.43;;;14.30;31.50;;;;;;20917262;28;20756;-65
2022/03/11 14:22:48;;;;;;;11.00;5.30;;;15.40;30.00;;;;;;20919006;28;20218;-64
2022/03/11 14:32:50;;;;;;;7.77;5.23;;;16.40;28.90;;;;;;20915718;28;20235;-67
2022/03/11 14:42:52;;;;;;;11.30;4.60;;;16.70;28.90;;;;;;20924747;28;20234;-62
2022/03/11 14:52:54;;;;;;;8.20;4.73;;;18.30;26.90;;;;;;20994914;28;20694;-62
2022/03/11 15:02:56;;;;;;;6.73;4.87;;;20.70;24.60;;;;;;20997279;28;20207;-66
2022/03/11 15:12:58;;;;;;;24.80;5.37;;;22.50;22.50;;;;;;21000168;28;20231;-66
2022/03/11 15:23:00;;;;;;;10.37;5.07;;;23.30;22.40;;;;;;21012342;28;20212;-69
2022/03/11 15:33:02;;;;;;;11.25;5.38;;;24.00;21.60;;;;;;20996997;28;20289;-63
2022/03/11 15:43:05;;;;;;;9.10;5.13;;;24.30;20.80;;;;;;20995427;28;20230;-63
2022/03/11 15:53:07;;;;;;;7.53;5.20;;;22.20;20.80;;;;;;20995324;28;20596;-62
2022/03/11 16:03:09;;;;;;;9.00;5.23;;;19.80;20.70;;;;;;20955503;28;20217;-63
2022/03/11 16:13:13;;;;;;;10.47;6.33;;;17.30;21.40;;;;;;20827325;28;20238;-62
2022/03/11 16:23:15;;;;;;;12.13;5.70;;;15.60;21.80;;;;;;20828750;28;20210;-62
2022/03/11 16:33:19;;;;;;;9.57;6.23;;;15.20;22.40;;;;;;20828039;28;20684;-63
2022/03/11 16:43:21;;;;;;;7.63;5.50;;;14.60;22.90;;;;;;20827915;28;20262;-67
2022/03/11 16:53:23;;;;;;;7.90;5.40;;;14.10;23.10;;;;;;20827780;28;20264;-72
2022/03/11 17:03:25;;;;;;;10.30;6.93;;;13.50;23.20;;;;;;20826960;28;20208;-68
2022/03/11 17:13:26;;;;;;;11.67;7.63;;;13.30;23.80;;;;;;20837934;28;20297;-63
2022/03/11 17:23:28;;;;;;;15.37;6.73;;;13.00;24.30;;;;;;20850958;28;20204;-67
2022/03/11 17:33:30;;;;;;;10.90;7.03;;;12.60;25.40;;;;;;20886547;28;20207;-68
2022/03/11 17:43:32;;;;;;;12.63;6.77;;;;;;;;;;20872625;28;20242;-72
2022/03/11 17:53:37;;;;;;;14.60;8.37;;;12.10;26.90;;;;;;20837677;28;20213;-63
2022/03/11 18:03:39;;;;;;;11.13;7.70;;;11.70;28.20;;;;;;20892738;28;20206;-66
2022/03/11 18:13:41;;;;;;;14.20;7.87;;;11.50;28.70;;;;;;20833083;28;20209;-68
2022/03/11 18:23:43;;;;;;;13.50;8.53;;;11.30;29.20;;;;;;20835969;28;20197;-66
2022/03/11 18:33:45;;;;;;;14.00;7.50;;;11.10;29.20;;;;;;20913288;28;20615;-72
2022/03/11 18:43:47;;;;;;;12.77;8.43;;;10.90;30.00;;;;;;20915611;28;20291;-73
2022/03/11 18:53:48;;;;;;;10.27;7.40;;;10.50;30.10;;;;;;20915388;28;20204;-72
2022/03/11 19:03:50;;;;;;;12.77;7.90;;;10.20;30.40;;;;;;20914568;28;20749;-64
2022/03/11 19:13:52;;;;;;;14.97;7.53;;;10.20;30.70;;;;;;20901715;28;20214;-71
2022/03/11 19:23:54;;;;;;;10.30;6.77;;;10.00;30.80;;;;;;20876478;28;20644;-68
2022/03/11 19:33:56;;;;;;;14.03;7.30;;;9.80;32.10;;;;;;20844861;28;20220;-69
2022/03/11 19:43:58;;;;;;;12.33;6.20;;;9.60;31.50;;;;;;20827404;28;20250;-65
2022/03/11 19:54:05;;;;;;;11.43;7.03;;;9.60;31.40;;;;;;20827811;28;20261;-64
2022/03/11 20:04:07;;;;;;;12.03;6.93;;;9.40;31.40;;;;;;20838711;28;20701;-63
2022/03/11 20:14:12;;;;;;;12.47;6.00;;;9.30;31.90;;;;;;20907778;28;20205;-62
2022/03/11 20:24:15;;;;;;;15.27;6.70;;;9.10;31.50;;;;;;20909010;28;20271;-64
2022/03/11 20:34:18;;;;;;;11.97;6.10;;;9.00;31.30;;;;;;20909073;28;20210;-64
2022/03/11 20:44:19;;;;;;;13.63;6.00;;;8.70;30.30;;;;;;20913476;28;20252;-63
2022/03/11 20:54:21;;;;;;;9.80;5.97;;;8.60;30.70;;;;;;20923261;28;20648;-65
2022/03/11 21:04:23;;;;;;;9.03;5.50;;;8.40;29.90;;;;;;20923023;28;20230;-63
2022/03/11 21:14:24;;;;;;;12.20;5.70;;;8.30;29.80;;;;;;20921846;28;20240;-64
2022/03/11 21:24:27;;;;;;;9.23;5.63;;;8.30;30.10;;;;;;20921461;28;20710;-63
2022/03/11 21:34:28;;;;;;;13.70;5.50;;;8.10;29.80;;;;;;20919707;28;20295;-63
2022/03/11 21:44:32;;;;;;;8.43;5.67;;;8.00;29.80;;;;;;20921600;28;20241;-66
2022/03/11 21:54:34;;;;;;;12.10;5.50;;;7.80;29.90;;;;;;20932885;28;20209;-64
2022/03/11 22:04:37;;;;;;;15.77;6.07;;;7.80;30.00;;;;;;20905796;28;20246;-64
2022/03/11 22:14:40;;;;;;;10.30;6.23;;;7.70;30.30;;;;;;20834946;28;20214;-65
2022/03/11 22:24:42;;;;;;;10.27;6.27;;;7.70;30.50;;;;;;20838574;28;20229;-64
2022/03/11 22:34:44;;;;;;;11.33;6.07;;;7.70;30.50;;;;;;20838723;28;20208;-65
2022/03/11 22:44:45;;;;;;;10.63;6.33;;;7.50;30.50;;;;;;20834441;28;20241;-64
2022/03/11 22:54:48;;;;;;;17.27;6.53;;;7.40;30.80;;;;;;20834123;28;20219;-64
2022/03/11 23:04:50;;;;;;;8.33;5.73;;;7.10;30.80;;;;;;20832943;28;20240;-66
2022/03/11 23:14:53;;;;;;;8.97;5.77;;;7.10;30.70;;;;;;20837785;28;20632;-65
2022/03/11 23:24:54;;;;;;;11.07;6.20;;;7.10;31.20;;;;;;20840260;28;20290;-66
2022/03/11 23:34:56;;;;;;;10.97;5.70;;;6.90;30.70;;;;;;20840645;28;20672;-65
2022/03/11 23:44:59;;;;;;;9.37;5.50;;;6.90;31.30;;;;;;20841408;28;20290;-66
2022/03/11 23:55:01;;;;;;;8.87;5.90;;;6.60;32.10;;;;;;20838167;28;20220;-64
